sensor_id;sensor_type;location;lat;lon;timestamp;P1;durP1;ratioP1;P2;durP2;ratioP2
46713;SDS011;32445;51.376;10.874;2023-06-10T00:02:25;5.40;;;4.63;;
46713;SDS011;32445;51.376;10.874;2023-06-10T00:05:26;5.45;;;4.05;;
46713;SDS011;32445;51.376;10.874;2023-06-10T00:08:29;4.43;;;4.07;;
46713;SDS011;32445;51.376;10.874;2023-06-10T00:11:32;4.05;;;3.65;;
46713;SDS011;32445;51.376;10.874;2023-06-10T00:14:33;3.90;;;3.60;;
46713;SDS011;32445;51.376;10.874;2023-06-10T00:17:34;5.18;;;4.78;;
46713;SDS011;32445;51.376;10.874;2023-06-10T00:20:34;6.47;;;4.83;;
46713;SDS011;32445;51.376;10.874;2023-06-10T00:26:40;5.78;;;4.28;;
46713;SDS011;32445;51.376;10.874;2023-06-10T00:29:41;6.47;;;4.40;;
46713;SDS011;32445;51.376;10.874;2023-06-10T00:32:41;5.07;;;4.67;;
46713;SDS011;32445;51.376;10.874;2023-06-10T00:35:42;9.23;;;4.23;;
46713;SDS011;32445;51.376;10.874;2023-06-10T00:38:42;4.87;;;4.30;;
46713;SDS011;32445;51.376;10.874;2023-06-10T00:41:42;5.60;;;4.93;;
46713;SDS011;32445;51.376;10.874;2023-06-10T00:44:43;4.67;;;4.03;;
46713;SDS011;32445;51.376;10.874;2023-06-10T00:47:43;7.63;;;5.07;;
46713;SDS011;32445;51.376;10.874;2023-06-10T00:50:45;6.00;;;4.50;;
46713;SDS011;32445;51.376;10.874;2023-06-10T00:53:46;4.82;;;4.03;;
46713;SDS011;32445;51.376;10.874;2023-06-10T00:56:47;4.60;;;3.67;;
46713;SDS011;32445;51.376;10.874;2023-06-10T00:59:48;9.35;;;4.95;;
46713;SDS011;32445;51.376;10.874;2023-06-10T01:02:49;6.05;;;4.28;;
46713;SDS011;32445;51.376;10.874;2023-06-10T01:05:54;3.90;;;3.53;;
46713;SDS011;32445;51.376;10.874;2023-06-10T01:12:49;4.05;;;3.78;;
46713;SDS011;32445;51.376;10.874;2023-06-10T01:15:59;5.13;;;4.63;;
46713;SDS011;32445;51.376;10.874;2023-06-10T01:19:00;4.03;;;3.70;;
46713;SDS011;32445;51.376;10.874;2023-06-10T01:22:00;4.57;;;4.03;;
46713;SDS011;32445;51.376;10.874;2023-06-10T01:25:01;4.60;;;4.07;;
46713;SDS011;32445;51.376;10.874;2023-06-10T01:34:33;4.85;;;4.50;;
46713;SDS011;32445;51.376;10.874;2023-06-10T01:37:36;5.30;;;4.03;;
46713;SDS011;32445;51.376;10.874;2023-06-10T01:40:39;4.18;;;3.75;;
46713;SDS011;32445;51.376;10.874;2023-06-10T01:46:43;6.15;;;3.83;;
46713;SDS011;32445;51.376;10.874;2023-06-10T01:49:43;4.53;;;4.00;;
46713;SDS011;32445;51.376;10.874;2023-06-10T01:52:45;5.13;;;3.90;;
46713;SDS011;32445;51.376;10.874;2023-06-10T01:55:45;5.75;;;4.38;;
46713;SDS011;32445;51.376;10.874;2023-06-10T01:58:46;4.43;;;3.40;;
46713;SDS011;32445;51.376;10.874;2023-06-10T02:01:46;5.00;;;4.50;;
46713;SDS011;32445;51.376;10.874;2023-06-10T02:04:47;5.67;;;4.20;;
46713;SDS011;32445;51.376;10.874;2023-06-10T02:07:47;4.63;;;4.23;;
46713;SDS011;32445;51.376;10.874;2023-06-10T02:10:47;4.60;;;4.20;;
46713;SDS011;32445;51.376;10.874;2023-06-10T02:13:48;4.10;;;3.80;;
46713;SDS011;32445;51.376;10.874;2023-06-10T02:16:48;5.40;;;4.90;;
46713;SDS011;32445;51.376;10.874;2023-06-10T02:19:49;4.50;;;4.10;;
46713;SDS011;32445;51.376;10.874;2023-06-10T02:22:52;3.97;;;3.67;;
46713;SDS011;32445;51.376;10.874;2023-06-10T02:25:52;5.13;;;3.83;;
46713;SDS011;32445;51.376;10.874;2023-06-10T02:28:53;4.60;;;3.67;;
46713;SDS011;32445;51.376;10.874;2023-06-10T02:31:53;4.27;;;3.87;;
46713;SDS011;32445;51.376;10.874;2023-06-10T02:34:53;6.77;;;3.90;;
46713;SDS011;32445;51.376;10.874;2023-06-10T02:37:54;3.90;;;3.57;;
46713;SDS011;32445;51.376;10.874;2023-06-10T02:40:54;4.50;;;4.10;;
46713;SDS011;32445;51.376;10.874;2023-06-10T02:43:55;4.43;;;3.33;;
46713;SDS011;32445;51.376;10.874;2023-06-10T02:46:55;4.50;;;4.07;;
46713;SDS011;32445;51.376;10.874;2023-06-10T02:49:55;4.73;;;3.93;;
46713;SDS011;32445;51.376;10.874;2023-06-10T02:52:56;3.60;;;3.30;;
46713;SDS011;32445;51.376;10.874;2023-06-10T02:55:56;6.73;;;3.50;;
46713;SDS011;32445;51.376;10.874;2023-06-10T02:58:56;6.07;;;3.83;;
46713;SDS011;32445;51.376;10.874;2023-06-10T03:01:57;3.60;;;3.30;;
46713;SDS011;32445;51.376;10.874;2023-06-10T03:04:59;4.18;;;3.80;;
46713;SDS011;32445;51.376;10.874;2023-06-10T03:07:59;4.13;;;3.37;;
46713;SDS011;32445;51.376;10.874;2023-06-10T03:11:00;8.30;;;4.00;;
46713;SDS011;32445;51.376;10.874;2023-06-10T03:14:00;5.10;;;2.70;;
46713;SDS011;32445;51.376;10.874;2023-06-10T03:17:00;5.10;;;3.20;;
46713;SDS011;32445;51.376;10.874;2023-06-10T03:20:01;4.30;;;3.17;;
46713;SDS011;32445;51.376;10.874;2023-06-10T03:23:01;3.43;;;3.13;;
46713;SDS011;32445;51.376;10.874;2023-06-10T03:26:02;5.10;;;3.57;;
46713;SDS011;32445;51.376;10.874;2023-06-10T03:29:02;5.67;;;2.83;;
46713;SDS011;32445;51.376;10.874;2023-06-10T03:32:03;3.50;;;2.83;;
46713;SDS011;32445;51.376;10.874;2023-06-10T03:35:03;3.43;;;3.13;;
46713;SDS011;32445;51.376;10.874;2023-06-10T03:38:04;8.77;;;3.57;;
46713;SDS011;32445;51.376;10.874;2023-06-10T03:41:05;7.00;;;3.73;;
46713;SDS011;32445;51.376;10.874;2023-06-10T03:44:05;6.47;;;4.33;;
46713;SDS011;32445;51.376;10.874;2023-06-10T03:47:06;5.87;;;5.00;;
46713;SDS011;32445;51.376;10.874;2023-06-10T03:50:06;6.07;;;5.23;;
46713;SDS011;32445;51.376;10.874;2023-06-10T03:53:10;5.70;;;5.10;;
46713;SDS011;32445;51.376;10.874;2023-06-10T03:56:10;5.47;;;4.97;;
46713;SDS011;32445;51.376;10.874;2023-06-10T03:59:11;5.60;;;4.77;;
46713;SDS011;32445;51.376;10.874;2023-06-10T04:02:11;12.50;;;5.73;;
46713;SDS011;32445;51.376;10.874;2023-06-10T04:05:12;4.43;;;4.10;;
46713;SDS011;32445;51.376;10.874;2023-06-10T04:08:14;5.03;;;4.57;;
46713;SDS011;32445;51.376;10.874;2023-06-10T04:11:14;4.00;;;3.60;;
46713;SDS011;32445;51.376;10.874;2023-06-10T04:14:15;4.60;;;4.20;;
46713;SDS011;32445;51.376;10.874;2023-06-10T04:17:15;4.30;;;3.90;;
46713;SDS011;32445;51.376;10.874;2023-06-10T04:20:16;8.80;;;4.23;;
46713;SDS011;32445;51.376;10.874;2023-06-10T04:23:16;5.67;;;4.30;;
46713;SDS011;32445;51.376;10.874;2023-06-10T04:26:17;6.90;;;3.50;;
46713;SDS011;32445;51.376;10.874;2023-06-10T04:29:17;5.03;;;3.50;;
46713;SDS011;32445;51.376;10.874;2023-06-10T04:32:18;5.20;;;3.33;;
46713;SDS011;32445;51.376;10.874;2023-06-10T04:35:18;4.00;;;2.93;;
46713;SDS011;32445;51.376;10.874;2023-06-10T04:38:18;3.93;;;3.63;;
46713;SDS011;32445;51.376;10.874;2023-06-10T04:41:19;4.90;;;3.23;;
46713;SDS011;32445;51.376;10.874;2023-06-10T04:44:19;5.40;;;3.20;;
46713;SDS011;32445;51.376;10.874;2023-06-10T04:47:19;6.13;;;3.53;;
46713;SDS011;32445;51.376;10.874;2023-06-10T04:50:20;4.97;;;3.27;;
46713;SDS011;32445;51.376;10.874;2023-06-10T04:53:20;5.30;;;3.10;;
46713;SDS011;32445;51.376;10.874;2023-06-10T04:56:20;4.13;;;2.90;;
46713;SDS011;32445;51.376;10.874;2023-06-10T04:59:22;4.28;;;3.22;;
46713;SDS011;32445;51.376;10.874;2023-06-10T05:02:22;4.97;;;2.67;;
46713;SDS011;32445;51.376;10.874;2023-06-10T05:05:22;7.83;;;3.47;;
46713;SDS011;32445;51.376;10.874;2023-06-10T05:08:23;4.83;;;3.43;;
46713;SDS011;32445;51.376;10.874;2023-06-10T05:11:23;6.03;;;3.30;;
46713;SDS011;32445;51.376;10.874;2023-06-10T05:14:23;4.63;;;3.73;;
46713;SDS011;32445;51.376;10.874;2023-06-10T05:17:24;4.97;;;4.47;;
46713;SDS011;32445;51.376;10.874;2023-06-10T05:20:25;3.67;;;3.33;;
46713;SDS011;32445;51.376;10.874;2023-06-10T05:23:25;3.63;;;3.33;;
46713;SDS011;32445;51.376;10.874;2023-06-10T05:26:26;4.97;;;4.30;;
46713;SDS011;32445;51.376;10.874;2023-06-10T05:29:26;3.80;;;3.43;;
46713;SDS011;32445;51.376;10.874;2023-06-10T05:32:27;3.83;;;3.37;;
46713;SDS011;32445;51.376;10.874;2023-06-10T05:35:27;4.43;;;3.47;;
46713;SDS011;32445;51.376;10.874;2023-06-10T05:38:27;3.70;;;3.37;;
46713;SDS011;32445;51.376;10.874;2023-06-10T05:41:28;4.13;;;3.20;;
46713;SDS011;32445;51.376;10.874;2023-06-10T05:44:28;4.10;;;3.37;;
46713;SDS011;32445;51.376;10.874;2023-06-10T05:47:29;5.23;;;3.63;;
46713;SDS011;32445;51.376;10.874;2023-06-10T05:50:29;3.50;;;3.20;;
46713;SDS011;32445;51.376;10.874;2023-06-10T05:53:29;8.23;;;4.33;;
46713;SDS011;32445;51.376;10.874;2023-06-10T05:56:30;7.47;;;4.20;;
46713;SDS011;32445;51.376;10.874;2023-06-10T05:59:30;6.10;;;3.60;;
46713;SDS011;32445;51.376;10.874;2023-06-10T06:02:30;20.60;;;4.93;;
46713;SDS011;32445;51.376;10.874;2023-06-10T06:05:31;4.67;;;3.97;;
46713;SDS011;32445;51.376;10.874;2023-06-10T06:08:34;5.03;;;4.53;;
46713;SDS011;32445;51.376;10.874;2023-06-10T06:11:35;7.07;;;4.27;;
46713;SDS011;32445;51.376;10.874;2023-06-10T06:14:38;8.53;;;4.90;;
46713;SDS011;32445;51.376;10.874;2023-06-10T06:17:40;5.35;;;4.82;;
46713;SDS011;32445;51.376;10.874;2023-06-10T06:20:40;5.33;;;4.53;;
46713;SDS011;32445;51.376;10.874;2023-06-10T06:23:40;4.93;;;4.33;;
46713;SDS011;32445;51.376;10.874;2023-06-10T06:26:41;5.43;;;4.93;;
46713;SDS011;32445;51.376;10.874;2023-06-10T06:29:41;9.90;;;5.77;;
46713;SDS011;32445;51.376;10.874;2023-06-10T06:32:41;5.80;;;5.20;;
46713;SDS011;32445;51.376;10.874;2023-06-10T06:35:42;9.80;;;4.13;;
46713;SDS011;32445;51.376;10.874;2023-06-10T06:38:42;5.77;;;5.10;;
46713;SDS011;32445;51.376;10.874;2023-06-10T06:41:42;7.93;;;5.87;;
46713;SDS011;32445;51.376;10.874;2023-06-10T06:44:43;8.10;;;5.30;;
46713;SDS011;32445;51.376;10.874;2023-06-10T06:47:43;5.40;;;4.97;;
46713;SDS011;32445;51.376;10.874;2023-06-10T06:50:44;7.70;;;5.63;;
46713;SDS011;32445;51.376;10.874;2023-06-10T06:53:44;6.93;;;5.80;;
46713;SDS011;32445;51.376;10.874;2023-06-10T06:56:45;9.10;;;5.40;;
46713;SDS011;32445;51.376;10.874;2023-06-10T06:59:45;6.23;;;5.83;;
46713;SDS011;32445;51.376;10.874;2023-06-10T07:02:46;9.53;;;6.97;;
46713;SDS011;32445;51.376;10.874;2023-06-10T07:05:46;5.27;;;4.87;;
46713;SDS011;32445;51.376;10.874;2023-06-10T07:08:48;6.30;;;5.70;;
46713;SDS011;32445;51.376;10.874;2023-06-10T07:11:49;6.90;;;5.55;;
46713;SDS011;32445;51.376;10.874;2023-06-10T07:14:50;5.77;;;5.03;;
46713;SDS011;32445;51.376;10.874;2023-06-10T07:17:51;10.52;;;5.93;;
46713;SDS011;32445;51.376;10.874;2023-06-10T07:20:51;8.37;;;5.40;;
46713;SDS011;32445;51.376;10.874;2023-06-10T07:23:51;5.93;;;5.03;;
46713;SDS011;32445;51.376;10.874;2023-06-10T07:26:53;7.40;;;5.40;;
46713;SDS011;32445;51.376;10.874;2023-06-10T07:29:53;7.10;;;5.40;;
46713;SDS011;32445;51.376;10.874;2023-06-10T07:32:54;10.43;;;6.00;;
46713;SDS011;32445;51.376;10.874;2023-06-10T07:35:55;10.77;;;5.97;;
46713;SDS011;32445;51.376;10.874;2023-06-10T07:38:56;9.03;;;5.97;;
46713;SDS011;32445;51.376;10.874;2023-06-10T07:41:56;6.10;;;5.50;;
46713;SDS011;32445;51.376;10.874;2023-06-10T07:44:57;9.17;;;6.00;;
46713;SDS011;32445;51.376;10.874;2023-06-10T07:47:57;7.67;;;5.27;;
46713;SDS011;32445;51.376;10.874;2023-06-10T07:50:57;7.27;;;4.50;;
46713;SDS011;32445;51.376;10.874;2023-06-10T07:53:58;8.90;;;5.47;;
46713;SDS011;32445;51.376;10.874;2023-06-10T07:56:58;7.77;;;5.57;;
46713;SDS011;32445;51.376;10.874;2023-06-10T07:59:58;10.43;;;6.03;;
46713;SDS011;32445;51.376;10.874;2023-06-10T08:03:00;12.20;;;6.47;;
46713;SDS011;32445;51.376;10.874;2023-06-10T08:06:00;6.23;;;5.30;;
46713;SDS011;32445;51.376;10.874;2023-06-10T08:09:01;8.90;;;5.77;;
46713;SDS011;32445;51.376;10.874;2023-06-10T08:12:01;7.27;;;5.80;;
46713;SDS011;32445;51.376;10.874;2023-06-10T08:15:02;7.75;;;5.70;;
46713;SDS011;32445;51.376;10.874;2023-06-10T08:18:06;10.98;;;5.30;;
46713;SDS011;32445;51.376;10.874;2023-06-10T08:21:07;8.27;;;5.83;;
46713;SDS011;32445;51.376;10.874;2023-06-10T08:24:07;6.47;;;5.80;;
46713;SDS011;32445;51.376;10.874;2023-06-10T08:27:09;12.50;;;5.45;;
46713;SDS011;32445;51.376;10.874;2023-06-10T08:30:11;5.88;;;5.10;;
46713;SDS011;32445;51.376;10.874;2023-06-10T08:33:13;9.82;;;5.60;;
46713;SDS011;32445;51.376;10.874;2023-06-10T08:36:13;15.13;;;6.63;;
46713;SDS011;32445;51.376;10.874;2023-06-10T08:39:14;7.03;;;6.30;;
46713;SDS011;32445;51.376;10.874;2023-06-10T08:42:24;7.53;;;6.83;;
46713;SDS011;32445;51.376;10.874;2023-06-10T08:45:34;7.20;;;6.50;;
46713;SDS011;32445;51.376;10.874;2023-06-10T08:48:37;7.40;;;5.97;;
46713;SDS011;32445;51.376;10.874;2023-06-10T08:51:42;10.85;;;6.72;;
46713;SDS011;32445;51.376;10.874;2023-06-10T08:54:43;8.05;;;6.75;;
46713;SDS011;32445;51.376;10.874;2023-06-10T08:57:57;10.52;;;6.57;;
46713;SDS011;32445;51.376;10.874;2023-06-10T09:00:59;8.00;;;7.22;;
46713;SDS011;32445;51.376;10.874;2023-06-10T09:03:59;10.97;;;6.93;;
46713;SDS011;32445;51.376;10.874;2023-06-10T09:07:01;6.93;;;6.10;;
46713;SDS011;32445;51.376;10.874;2023-06-10T09:13:03;8.88;;;7.03;;
46713;SDS011;32445;51.376;10.874;2023-06-10T09:16:04;10.47;;;7.47;;
46713;SDS011;32445;51.376;10.874;2023-06-10T09:19:05;14.03;;;7.50;;
46713;SDS011;32445;51.376;10.874;2023-06-10T09:22:08;8.80;;;6.63;;
46713;SDS011;32445;51.376;10.874;2023-06-10T09:25:11;11.67;;;6.90;;
46713;SDS011;32445;51.376;10.874;2023-06-10T09:28:13;9.20;;;7.25;;
46713;SDS011;32445;51.376;10.874;2023-06-10T09:31:15;12.15;;;5.95;;
46713;SDS011;32445;51.376;10.874;2023-06-10T09:34:18;9.50;;;6.60;;
46713;SDS011;32445;51.376;10.874;2023-06-10T09:37:22;5.83;;;5.37;;
46713;SDS011;32445;51.376;10.874;2023-06-10T09:40:23;7.50;;;6.80;;
46713;SDS011;32445;51.376;10.874;2023-06-10T09:43:38;10.90;;;6.85;;
46713;SDS011;32445;51.376;10.874;2023-06-10T09:46:40;6.82;;;6.18;;
46713;SDS011;32445;51.376;10.874;2023-06-10T09:49:41;8.13;;;6.90;;
46713;SDS011;32445;51.376;10.874;2023-06-10T09:52:41;6.80;;;5.80;;
46713;SDS011;32445;51.376;10.874;2023-06-10T09:55:42;6.93;;;6.27;;
46713;SDS011;32445;51.376;10.874;2023-06-10T09:58:44;7.50;;;6.53;;
46713;SDS011;32445;51.376;10.874;2023-06-10T10:01:46;6.90;;;6.22;;
46713;SDS011;32445;51.376;10.874;2023-06-10T10:05:01;6.90;;;6.20;;
46713;SDS011;32445;51.376;10.874;2023-06-10T10:08:03;6.97;;;6.32;;
46713;SDS011;32445;51.376;10.874;2023-06-10T10:11:03;6.95;;;6.35;;
46713;SDS011;32445;51.376;10.874;2023-06-10T10:14:05;6.18;;;5.68;;
46713;SDS011;32445;51.376;10.874;2023-06-10T10:17:07;6.07;;;5.57;;
46713;SDS011;32445;51.376;10.874;2023-06-10T10:20:11;6.93;;;6.22;;
46713;SDS011;32445;51.376;10.874;2023-06-10T10:23:14;6.70;;;6.10;;
46713;SDS011;32445;51.376;10.874;2023-06-10T10:26:21;5.70;;;5.03;;
46713;SDS011;32445;51.376;10.874;2023-06-10T10:29:33;7.53;;;4.82;;
46713;SDS011;32445;51.376;10.874;2023-06-10T10:32:40;5.07;;;4.68;;
46713;SDS011;32445;51.376;10.874;2023-06-10T10:35:46;5.45;;;4.95;;
46713;SDS011;32445;51.376;10.874;2023-06-10T10:38:47;4.35;;;3.97;;
46713;SDS011;32445;51.376;10.874;2023-06-10T10:41:49;15.23;;;4.60;;
46713;SDS011;32445;51.376;10.874;2023-06-10T10:44:50;6.25;;;5.47;;
46713;SDS011;32445;51.376;10.874;2023-06-10T10:47:52;4.93;;;4.47;;
46713;SDS011;32445;51.376;10.874;2023-06-10T10:50:57;6.80;;;5.07;;
46713;SDS011;32445;51.376;10.874;2023-06-10T10:54:10;5.60;;;5.10;;
46713;SDS011;32445;51.376;10.874;2023-06-10T10:57:21;5.72;;;5.13;;
46713;SDS011;32445;51.376;10.874;2023-06-10T11:00:30;6.47;;;5.05;;
46713;SDS011;32445;51.376;10.874;2023-06-10T11:03:35;8.20;;;4.70;;
46713;SDS011;32445;51.376;10.874;2023-06-10T11:06:53;6.05;;;4.60;;
46713;SDS011;32445;51.376;10.874;2023-06-10T11:09:57;6.33;;;4.80;;
46713;SDS011;32445;51.376;10.874;2023-06-10T11:13:00;8.15;;;5.05;;
46713;SDS011;32445;51.376;10.874;2023-06-10T11:16:05;4.82;;;4.47;;
46713;SDS011;32445;51.376;10.874;2023-06-10T11:19:09;5.15;;;4.75;;
46713;SDS011;32445;51.376;10.874;2023-06-10T11:22:14;6.60;;;5.72;;
46713;SDS011;32445;51.376;10.874;2023-06-10T11:25:17;5.32;;;4.35;;
46713;SDS011;32445;51.376;10.874;2023-06-10T11:31:50;5.60;;;4.18;;
46713;SDS011;32445;51.376;10.874;2023-06-10T11:34:52;8.55;;;4.63;;
46713;SDS011;32445;51.376;10.874;2023-06-10T11:37:53;7.72;;;4.78;;
46713;SDS011;32445;51.376;10.874;2023-06-10T11:40:54;8.15;;;4.55;;
46713;SDS011;32445;51.376;10.874;2023-06-10T11:43:56;5.22;;;4.45;;
46713;SDS011;32445;51.376;10.874;2023-06-10T11:47:01;5.32;;;4.68;;
46713;SDS011;32445;51.376;10.874;2023-06-10T11:50:01;6.65;;;5.00;;
46713;SDS011;32445;51.376;10.874;2023-06-10T11:53:02;5.05;;;4.57;;
46713;SDS011;32445;51.376;10.874;2023-06-10T11:56:03;11.05;;;4.85;;
46713;SDS011;32445;51.376;10.874;2023-06-10T11:59:04;8.77;;;4.75;;
46713;SDS011;32445;51.376;10.874;2023-06-10T12:02:07;4.75;;;4.30;;
46713;SDS011;32445;51.376;10.874;2023-06-10T12:05:15;7.47;;;4.10;;
46713;SDS011;32445;51.376;10.874;2023-06-10T12:08:15;5.78;;;4.57;;
46713;SDS011;32445;51.376;10.874;2023-06-10T12:11:16;5.13;;;4.63;;
46713;SDS011;32445;51.376;10.874;2023-06-10T12:14:47;6.13;;;4.60;;
46713;SDS011;32445;51.376;10.874;2023-06-10T12:17:54;5.63;;;4.05;;
46713;SDS011;32445;51.376;10.874;2023-06-10T12:20:54;7.65;;;4.38;;
46713;SDS011;32445;51.376;10.874;2023-06-10T12:24:08;8.00;;;3.85;;
46713;SDS011;32445;51.376;10.874;2023-06-10T12:27:12;6.47;;;3.92;;
46713;SDS011;32445;51.376;10.874;2023-06-10T12:30:18;8.77;;;4.45;;
46713;SDS011;32445;51.376;10.874;2023-06-10T12:33:24;5.25;;;4.10;;
46713;SDS011;32445;51.376;10.874;2023-06-10T12:36:24;5.03;;;4.20;;
46713;SDS011;32445;51.376;10.874;2023-06-10T12:39:24;4.95;;;4.55;;
46713;SDS011;32445;51.376;10.874;2023-06-10T12:42:25;6.45;;;4.03;;
46713;SDS011;32445;51.376;10.874;2023-06-10T12:45:29;9.35;;;3.85;;
46713;SDS011;32445;51.376;10.874;2023-06-10T12:48:31;3.75;;;3.45;;
46713;SDS011;32445;51.376;10.874;2023-06-10T12:51:31;4.25;;;3.53;;
46713;SDS011;32445;51.376;10.874;2023-06-10T12:54:31;4.88;;;2.92;;
46713;SDS011;32445;51.376;10.874;2023-06-10T12:57:32;10.20;;;3.85;;
46713;SDS011;32445;51.376;10.874;2023-06-10T13:00:32;5.97;;;3.28;;
46713;SDS011;32445;51.376;10.874;2023-06-10T13:03:34;3.10;;;2.90;;
46713;SDS011;32445;51.376;10.874;2023-06-10T13:06:35;4.50;;;3.65;;
46713;SDS011;32445;51.376;10.874;2023-06-10T13:09:38;4.20;;;3.90;;
46713;SDS011;32445;51.376;10.874;2023-06-10T13:12:39;4.32;;;3.10;;
46713;SDS011;32445;51.376;10.874;2023-06-10T13:15:40;3.15;;;2.95;;
46713;SDS011;32445;51.376;10.874;2023-06-10T13:18:41;3.85;;;3.45;;
46713;SDS011;32445;51.376;10.874;2023-06-10T13:21:41;3.33;;;3.13;;
46713;SDS011;32445;51.376;10.874;2023-06-10T13:24:42;3.88;;;3.45;;
46713;SDS011;32445;51.376;10.874;2023-06-10T13:27:43;3.67;;;3.38;;
46713;SDS011;32445;51.376;10.874;2023-06-10T13:30:44;3.25;;;3.00;;
46713;SDS011;32445;51.376;10.874;2023-06-10T13:33:44;6.53;;;2.78;;
46713;SDS011;32445;51.376;10.874;2023-06-10T13:36:44;3.05;;;2.85;;
46713;SDS011;32445;51.376;10.874;2023-06-10T13:39:45;3.70;;;3.38;;
46713;SDS011;32445;51.376;10.874;2023-06-10T13:42:50;5.40;;;3.08;;
46713;SDS011;32445;51.376;10.874;2023-06-10T13:45:52;7.43;;;3.25;;
46713;SDS011;32445;51.376;10.874;2023-06-10T13:48:52;4.05;;;3.47;;
46713;SDS011;32445;51.376;10.874;2023-06-10T13:51:53;5.28;;;3.08;;
46713;SDS011;32445;51.376;10.874;2023-06-10T13:54:53;5.15;;;3.58;;
46713;SDS011;32445;51.376;10.874;2023-06-10T13:57:53;3.45;;;3.08;;
46713;SDS011;32445;51.376;10.874;2023-06-10T14:00:54;3.63;;;3.33;;
46713;SDS011;32445;51.376;10.874;2023-06-10T14:03:54;3.90;;;3.03;;
46713;SDS011;32445;51.376;10.874;2023-06-10T14:06:54;4.35;;;3.58;;
46713;SDS011;32445;51.376;10.874;2023-06-10T14:09:55;4.97;;;3.45;;
46713;SDS011;32445;51.376;10.874;2023-06-10T14:12:56;4.10;;;2.78;;
46713;SDS011;32445;51.376;10.874;2023-06-10T14:15:56;3.20;;;2.88;;
46713;SDS011;32445;51.376;10.874;2023-06-10T14:18:57;5.50;;;3.38;;
46713;SDS011;32445;51.376;10.874;2023-06-10T14:21:58;3.42;;;3.13;;
46713;SDS011;32445;51.376;10.874;2023-06-10T14:24:58;3.45;;;3.15;;
46713;SDS011;32445;51.376;10.874;2023-06-10T14:27:58;3.88;;;3.53;;
46713;SDS011;32445;51.376;10.874;2023-06-10T14:30:58;3.78;;;3.42;;
46713;SDS011;32445;51.376;10.874;2023-06-10T14:33:59;8.98;;;3.83;;
46713;SDS011;32445;51.376;10.874;2023-06-10T14:37:00;4.22;;;3.67;;
46713;SDS011;32445;51.376;10.874;2023-06-10T14:40:00;4.43;;;3.30;;
46713;SDS011;32445;51.376;10.874;2023-06-10T14:43:01;6.82;;;3.70;;
46713;SDS011;32445;51.376;10.874;2023-06-10T14:46:04;6.32;;;3.83;;
46713;SDS011;32445;51.376;10.874;2023-06-10T14:49:04;3.78;;;3.40;;
46713;SDS011;32445;51.376;10.874;2023-06-10T14:52:04;3.50;;;3.25;;
46713;SDS011;32445;51.376;10.874;2023-06-10T14:55:05;3.78;;;3.20;;
46713;SDS011;32445;51.376;10.874;2023-06-10T14:58:06;3.30;;;3.00;;
46713;SDS011;32445;51.376;10.874;2023-06-10T15:01:06;4.57;;;3.95;;
46713;SDS011;32445;51.376;10.874;2023-06-10T15:04:06;3.45;;;3.00;;
46713;SDS011;32445;51.376;10.874;2023-06-10T15:07:06;3.90;;;3.60;;
46713;SDS011;32445;51.376;10.874;2023-06-10T15:10:07;3.55;;;3.28;;
46713;SDS011;32445;51.376;10.874;2023-06-10T15:13:08;7.32;;;3.15;;
46713;SDS011;32445;51.376;10.874;2023-06-10T15:16:08;3.38;;;3.00;;
46713;SDS011;32445;51.376;10.874;2023-06-10T15:19:09;3.97;;;2.55;;
46713;SDS011;32445;51.376;10.874;2023-06-10T15:22:10;2.70;;;2.08;;
46713;SDS011;32445;51.376;10.874;2023-06-10T15:25:12;3.30;;;2.40;;
46713;SDS011;32445;51.376;10.874;2023-06-10T15:28:12;2.92;;;2.35;;
46713;SDS011;32445;51.376;10.874;2023-06-10T15:31:12;2.70;;;2.50;;
46713;SDS011;32445;51.376;10.874;2023-06-10T15:34:13;5.68;;;2.33;;
46713;SDS011;32445;51.376;10.874;2023-06-10T15:37:14;2.72;;;2.53;;
46713;SDS011;32445;51.376;10.874;2023-06-10T15:40:14;3.47;;;2.55;;
46713;SDS011;32445;51.376;10.874;2023-06-10T15:43:15;3.10;;;2.40;;
46713;SDS011;32445;51.376;10.874;2023-06-10T15:46:15;4.10;;;3.30;;
46713;SDS011;32445;51.376;10.874;2023-06-10T15:49:15;4.18;;;3.03;;
46713;SDS011;32445;51.376;10.874;2023-06-10T15:52:16;4.38;;;3.17;;
46713;SDS011;32445;51.376;10.874;2023-06-10T15:55:16;5.43;;;3.90;;
46713;SDS011;32445;51.376;10.874;2023-06-10T15:58:17;4.10;;;3.67;;
46713;SDS011;32445;51.376;10.874;2023-06-10T16:01:17;5.80;;;3.67;;
46713;SDS011;32445;51.376;10.874;2023-06-10T16:04:17;5.95;;;4.00;;
46713;SDS011;32445;51.376;10.874;2023-06-10T16:07:18;10.20;;;4.18;;
46713;SDS011;32445;51.376;10.874;2023-06-10T16:10:18;5.40;;;4.63;;
46713;SDS011;32445;51.376;10.874;2023-06-10T16:13:18;9.95;;;4.03;;
46713;SDS011;32445;51.376;10.874;2023-06-10T16:16:19;4.53;;;3.40;;
46713;SDS011;32445;51.376;10.874;2023-06-10T16:19:19;5.35;;;3.83;;
46713;SDS011;32445;51.376;10.874;2023-06-10T16:22:19;6.55;;;3.72;;
46713;SDS011;32445;51.376;10.874;2023-06-10T16:25:20;4.72;;;3.42;;
46713;SDS011;32445;51.376;10.874;2023-06-10T16:28:20;5.88;;;3.53;;
46713;SDS011;32445;51.376;10.874;2023-06-10T16:31:20;5.30;;;3.47;;
46713;SDS011;32445;51.376;10.874;2023-06-10T16:34:21;10.10;;;4.70;;
46713;SDS011;32445;51.376;10.874;2023-06-10T16:37:21;6.70;;;3.92;;
46713;SDS011;32445;51.376;10.874;2023-06-10T16:40:22;4.25;;;3.95;;
46713;SDS011;32445;51.376;10.874;2023-06-10T16:43:22;4.07;;;3.78;;
46713;SDS011;32445;51.376;10.874;2023-06-10T16:46:24;4.43;;;4.13;;
46713;SDS011;32445;51.376;10.874;2023-06-10T16:49:25;6.45;;;5.85;;
46713;SDS011;32445;51.376;10.874;2023-06-10T16:52:25;9.73;;;6.95;;
46713;SDS011;32445;51.376;10.874;2023-06-10T16:55:25;4.65;;;4.25;;
46713;SDS011;32445;51.376;10.874;2023-06-10T16:58:26;4.75;;;4.35;;
46713;SDS011;32445;51.376;10.874;2023-06-10T17:01:26;4.80;;;4.20;;
46713;SDS011;32445;51.376;10.874;2023-06-10T17:04:26;5.53;;;5.03;;
46713;SDS011;32445;51.376;10.874;2023-06-10T17:07:27;5.32;;;4.22;;
46713;SDS011;32445;51.376;10.874;2023-06-10T17:10:27;4.68;;;4.35;;
46713;SDS011;32445;51.376;10.874;2023-06-10T17:13:27;5.07;;;4.68;;
46713;SDS011;32445;51.376;10.874;2023-06-10T17:16:28;4.80;;;4.40;;
46713;SDS011;32445;51.376;10.874;2023-06-10T17:19:29;5.35;;;4.20;;
46713;SDS011;32445;51.376;10.874;2023-06-10T17:22:29;4.40;;;3.97;;
46713;SDS011;32445;51.376;10.874;2023-06-10T17:25:29;7.72;;;4.20;;
46713;SDS011;32445;51.376;10.874;2023-06-10T17:28:30;5.30;;;4.60;;
46713;SDS011;32445;51.376;10.874;2023-06-10T17:31:30;5.60;;;5.20;;
46713;SDS011;32445;51.376;10.874;2023-06-10T17:34:30;6.18;;;4.90;;
46713;SDS011;32445;51.376;10.874;2023-06-10T17:37:31;5.82;;;4.88;;
46713;SDS011;32445;51.376;10.874;2023-06-10T17:40:31;16.02;;;6.00;;
46713;SDS011;32445;51.376;10.874;2023-06-10T17:43:31;10.40;;;5.30;;
46713;SDS011;32445;51.376;10.874;2023-06-10T17:46:32;7.18;;;4.95;;
46713;SDS011;32445;51.376;10.874;2023-06-10T17:49:32;6.57;;;5.18;;
46713;SDS011;32445;51.376;10.874;2023-06-10T17:52:33;5.40;;;4.95;;
46713;SDS011;32445;51.376;10.874;2023-06-10T17:55:34;5.20;;;4.70;;
46713;SDS011;32445;51.376;10.874;2023-06-10T17:58:35;4.72;;;4.32;;
46713;SDS011;32445;51.376;10.874;2023-06-10T18:01:35;4.72;;;4.32;;
46713;SDS011;32445;51.376;10.874;2023-06-10T18:04:35;4.90;;;4.50;;
46713;SDS011;32445;51.376;10.874;2023-06-10T18:10:36;5.57;;;4.77;;
46713;SDS011;32445;51.376;10.874;2023-06-10T18:13:37;7.57;;;5.05;;
46713;SDS011;32445;51.376;10.874;2023-06-10T18:19:37;7.40;;;4.97;;
46713;SDS011;32445;51.376;10.874;2023-06-10T18:22:38;5.05;;;4.65;;
46713;SDS011;32445;51.376;10.874;2023-06-10T18:28:41;5.78;;;5.20;;